BOX79G EDDM-EDDF
Flight info
| Callsign | BOX79G |
|---|---|
| Flight time | N/A |
| Altitude | 26000 |
| Route | GIVMI1N/26R GIVMI Y101 ERNAS T161 DEBHI DEBHI1B |
| Aircraft | B772/H-SDE2E3FGHIJ5LORVWXY/LB1D1 |
Departure
| Time | 2026-05-07 13:36 |
|---|---|
| Airport | Munich Airport (EDDM) |
Arrival
| Time | N/A |
|---|---|
| Airport | Frankfurt Main Airport (EDDF) |
| Time | Latitude | Longitude | Altitude | Speed | Heading |
|---|---|---|---|---|---|
| 2026-05-07 13:16 | 48.35009 | 11.79794 | 1478 ft | 0 kts | 172° |
| 2026-05-07 13:29 | 48.35012 | 11.79794 | 1490 ft | 2 kts | 172° |
| 2026-05-07 13:29 | 48.35028 | 11.79790 | 1486 ft | 2 kts | 174° |
| 2026-05-07 13:29 | 48.35045 | 11.79787 | 1477 ft | 2 kts | 172° |
| 2026-05-07 13:29 | 48.35061 | 11.79783 | 1475 ft | 2 kts | 172° |
| 2026-05-07 13:30 | 48.35077 | 11.79780 | 1480 ft | 2 kts | 172° |
| 2026-05-07 13:30 | 48.35093 | 11.79776 | 1478 ft | 2 kts | 219° |
| 2026-05-07 13:30 | 48.35105 | 11.79794 | 1475 ft | 2 kts | 244° |
| 2026-05-07 13:30 | 48.35110 | 11.79816 | 1475 ft | 1 kts | 260° |
| 2026-05-07 13:31 | 48.35111 | 11.79819 | 1475 ft | 0 kts | 272° |
| 2026-05-07 13:32 | 48.35104 | 11.79726 | 1484 ft | 10 kts | 261° |
| 2026-05-07 13:32 | 48.35041 | 11.79663 | 1480 ft | 13 kts | 184° |
| 2026-05-07 13:33 | 48.34953 | 11.79676 | 1483 ft | 13 kts | 173° |
| 2026-05-07 13:33 | 48.34866 | 11.79691 | 1480 ft | 13 kts | 173° |
| 2026-05-07 13:33 | 48.34807 | 11.79758 | 1484 ft | 13 kts | 94° |
| 2026-05-07 13:33 | 48.34817 | 11.79894 | 1490 ft | 13 kts | 83° |
| 2026-05-07 13:34 | 48.34832 | 11.80094 | 1486 ft | 30 kts | 84° |
| 2026-05-07 13:34 | 48.34700 | 11.80402 | 1482 ft | 17 kts | 176° |
| 2026-05-07 13:34 | 48.34580 | 11.80419 | 1474 ft | 17 kts | 178° |
| 2026-05-07 13:35 | 48.34473 | 11.80363 | 1478 ft | 16 kts | 251° |
| 2026-05-07 13:35 | 48.34461 | 11.80186 | 1486 ft | 16 kts | 263° |
| 2026-05-07 13:35 | 48.34446 | 11.80004 | 1482 ft | 17 kts | 263° |
| 2026-05-07 13:35 | 48.34409 | 11.79523 | 1479 ft | 91 kts | 263° |
| 2026-05-07 13:36 | 48.34310 | 11.78145 | 1530 ft | 167 kts | 266° |
| 2026-05-07 13:36 | 48.34164 | 11.76246 | 2177 ft | 199 kts | 266° |
| 2026-05-07 13:36 | 48.34026 | 11.74125 | 3030 ft | 212 kts | 266° |
| 2026-05-07 13:36 | 48.33886 | 11.71821 | 3719 ft | 231 kts | 267° |
| 2026-05-07 13:37 | 48.33792 | 11.69974 | 4529 ft | 230 kts | 267° |
| 2026-05-07 13:37 | 48.33696 | 11.67754 | 4969 ft | 248 kts | 268° |
| 2026-05-07 13:37 | 48.33624 | 11.65236 | 4873 ft | 236 kts | 269° |